sensor_id;sensor_type;location;lat;lon;timestamp;P1;durP1;ratioP1;P2;durP2;ratioP2
58055;SDS011;53159;55.152;36.614;2022-08-04T00:01:31;15.35;;;11.93;;
58055;SDS011;53159;55.152;36.614;2022-08-04T00:04:28;18.90;;;12.13;;
58055;SDS011;53159;55.152;36.614;2022-08-04T00:07:07;15.88;;;14.00;;
58055;SDS011;53159;55.152;36.614;2022-08-04T00:12:04;16.23;;;14.63;;
58055;SDS011;53159;55.152;36.614;2022-08-04T00:14:33;16.05;;;14.50;;
58055;SDS011;53159;55.152;36.614;2022-08-04T00:17:06;11.85;;;10.27;;
58055;SDS011;53159;55.152;36.614;2022-08-04T00:19:43;12.57;;;11.27;;
58055;SDS011;53159;55.152;36.614;2022-08-04T00:22:15;12.05;;;10.88;;
58055;SDS011;53159;55.152;36.614;2022-08-04T00:24:45;13.13;;;11.82;;
58055;SDS011;53159;55.152;36.614;2022-08-04T00:27:12;15.60;;;11.18;;
58055;SDS011;53159;55.152;36.614;2022-08-04T00:29:41;13.15;;;10.15;;
58055;SDS011;53159;55.152;36.614;2022-08-04T00:32:09;13.48;;;11.30;;
58055;SDS011;53159;55.152;36.614;2022-08-04T00:34:37;13.65;;;12.30;;
58055;SDS011;53159;55.152;36.614;2022-08-04T00:37:04;18.08;;;15.00;;
58055;SDS011;53159;55.152;36.614;2022-08-04T00:39:32;20.40;;;15.45;;
58055;SDS011;53159;55.152;36.614;2022-08-04T00:50:03;12.32;;;11.05;;
58055;SDS011;53159;55.152;36.614;2022-08-04T00:58:20;12.52;;;10.13;;
58055;SDS011;53159;55.152;36.614;2022-08-04T01:03:23;12.10;;;10.88;;
58055;SDS011;53159;55.152;36.614;2022-08-04T01:16:26;12.82;;;11.52;;
58055;SDS011;53159;55.152;36.614;2022-08-04T01:19:02;13.45;;;10.15;;
58055;SDS011;53159;55.152;36.614;2022-08-04T01:30:42;17.75;;;11.57;;
58055;SDS011;53159;55.152;36.614;2022-08-04T01:33:12;14.10;;;10.48;;
58055;SDS011;53159;55.152;36.614;2022-08-04T01:36:16;11.13;;;9.98;;
58055;SDS011;53159;55.152;36.614;2022-08-04T01:38:39;22.45;;;16.90;;
58055;SDS011;53159;55.152;36.614;2022-08-04T01:41:09;21.63;;;18.05;;
58055;SDS011;53159;55.152;36.614;2022-08-04T01:43:45;17.60;;;15.18;;
58055;SDS011;53159;55.152;36.614;2022-08-04T01:46:14;14.07;;;12.57;;
58055;SDS011;53159;55.152;36.614;2022-08-04T01:48:47;15.98;;;11.52;;
58055;SDS011;53159;55.152;36.614;2022-08-04T01:51:21;15.70;;;10.50;;
58055;SDS011;53159;55.152;36.614;2022-08-04T01:53:49;14.80;;;11.00;;
58055;SDS011;53159;55.152;36.614;2022-08-04T01:56:17;13.85;;;10.70;;
58055;SDS011;53159;55.152;36.614;2022-08-04T01:58:47;12.10;;;10.93;;
58055;SDS011;53159;55.152;36.614;2022-08-04T02:01:14;16.17;;;13.20;;
58055;SDS011;53159;55.152;36.614;2022-08-04T02:03:43;12.85;;;11.57;;
58055;SDS011;53159;55.152;36.614;2022-08-04T02:06:27;19.40;;;11.30;;
58055;SDS011;53159;55.152;36.614;2022-08-04T02:11:59;12.10;;;10.02;;
58055;SDS011;53159;55.152;36.614;2022-08-04T02:15:02;14.95;;;11.05;;
58055;SDS011;53159;55.152;36.614;2022-08-04T02:20:22;12.20;;;10.73;;
58055;SDS011;53159;55.152;36.614;2022-08-04T02:23:02;15.57;;;12.80;;
58055;SDS011;53159;55.152;36.614;2022-08-04T02:25:36;16.65;;;11.15;;
58055;SDS011;53159;55.152;36.614;2022-08-04T02:30:57;19.00;;;12.10;;
58055;SDS011;53159;55.152;36.614;2022-08-04T02:33:49;14.07;;;10.60;;
58055;SDS011;53159;55.152;36.614;2022-08-04T02:36:39;15.40;;;11.02;;
58055;SDS011;53159;55.152;36.614;2022-08-04T02:39:08;12.32;;;11.05;;
58055;SDS011;53159;55.152;36.614;2022-08-04T02:41:37;15.15;;;10.90;;
58055;SDS011;53159;55.152;36.614;2022-08-04T02:44:07;22.48;;;12.73;;
58055;SDS011;53159;55.152;36.614;2022-08-04T02:46:35;11.20;;;10.05;;
58055;SDS011;53159;55.152;36.614;2022-08-04T02:49:05;12.73;;;9.52;;
58055;SDS011;53159;55.152;36.614;2022-08-04T02:51:34;17.98;;;10.50;;
58055;SDS011;53159;55.152;36.614;2022-08-04T02:54:07;11.10;;;10.00;;
58055;SDS011;53159;55.152;36.614;2022-08-04T02:56:35;15.50;;;12.88;;
58055;SDS011;53159;55.152;36.614;2022-08-04T02:59:06;15.07;;;11.50;;
58055;SDS011;53159;55.152;36.614;2022-08-04T03:01:37;12.30;;;11.02;;
58055;SDS011;53159;55.152;36.614;2022-08-04T03:18:36;12.30;;;10.73;;
58055;SDS011;53159;55.152;36.614;2022-08-04T03:37:58;11.90;;;10.75;;
58055;SDS011;53159;55.152;36.614;2022-08-04T03:46:50;11.63;;;9.07;;
58055;SDS011;53159;55.152;36.614;2022-08-04T03:49:51;10.68;;;8.15;;
58055;SDS011;53159;55.152;36.614;2022-08-04T04:32:04;10.75;;;7.75;;
58055;SDS011;53159;55.152;36.614;2022-08-04T04:51:22;21.42;;;9.25;;
58055;SDS011;53159;55.152;36.614;2022-08-04T04:59:36;12.30;;;6.93;;
58055;SDS011;53159;55.152;36.614;2022-08-04T05:05:29;12.57;;;6.13;;
58055;SDS011;53159;55.152;36.614;2022-08-04T05:14:03;7.00;;;4.38;;
58055;SDS011;53159;55.152;36.614;2022-08-04T05:24:51;13.65;;;5.35;;
58055;SDS011;53159;55.152;36.614;2022-08-04T05:27:33;9.02;;;5.25;;
58055;SDS011;53159;55.152;36.614;2022-08-04T05:30:07;14.00;;;6.30;;
58055;SDS011;53159;55.152;36.614;2022-08-04T05:32:42;11.60;;;5.43;;
58055;SDS011;53159;55.152;36.614;2022-08-04T05:35:38;6.65;;;5.28;;
58055;SDS011;53159;55.152;36.614;2022-08-04T05:38:13;6.28;;;4.90;;
58055;SDS011;53159;55.152;36.614;2022-08-04T05:40:43;9.55;;;5.70;;
58055;SDS011;53159;55.152;36.614;2022-08-04T05:43:11;10.88;;;5.10;;
58055;SDS011;53159;55.152;36.614;2022-08-04T05:45:40;13.20;;;5.22;;
58055;SDS011;53159;55.152;36.614;2022-08-04T05:48:08;6.53;;;4.53;;
58055;SDS011;53159;55.152;36.614;2022-08-04T05:50:36;12.77;;;5.40;;
58055;SDS011;53159;55.152;36.614;2022-08-04T05:53:04;7.00;;;5.10;;
58055;SDS011;53159;55.152;36.614;2022-08-04T05:55:34;14.18;;;5.93;;
58055;SDS011;53159;55.152;36.614;2022-08-04T05:58:02;11.02;;;5.07;;
58055;SDS011;53159;55.152;36.614;2022-08-04T06:00:30;12.30;;;5.35;;
58055;SDS011;53159;55.152;36.614;2022-08-04T06:02:59;18.00;;;5.22;;
58055;SDS011;53159;55.152;36.614;2022-08-04T06:05:30;12.38;;;5.25;;
58055;SDS011;53159;55.152;36.614;2022-08-04T06:07:58;10.27;;;4.80;;
58055;SDS011;53159;55.152;36.614;2022-08-04T06:10:25;9.50;;;4.22;;
58055;SDS011;53159;55.152;36.614;2022-08-04T06:12:57;8.15;;;4.60;;
58055;SDS011;53159;55.152;36.614;2022-08-04T06:15:29;8.18;;;4.45;;
58055;SDS011;53159;55.152;36.614;2022-08-04T06:18:00;11.20;;;4.30;;
58055;SDS011;53159;55.152;36.614;2022-08-04T06:20:30;6.80;;;4.63;;
58055;SDS011;53159;55.152;36.614;2022-08-04T06:23:02;7.75;;;3.95;;
58055;SDS011;53159;55.152;36.614;2022-08-04T06:25:35;7.43;;;3.83;;
58055;SDS011;53159;55.152;36.614;2022-08-04T06:28:09;4.68;;;3.60;;
58055;SDS011;53159;55.152;36.614;2022-08-04T06:30:39;5.72;;;3.47;;
58055;SDS011;53159;55.152;36.614;2022-08-04T06:33:08;5.45;;;3.58;;
58055;SDS011;53159;55.152;36.614;2022-08-04T06:35:51;5.53;;;3.42;;
58055;SDS011;53159;55.152;36.614;2022-08-04T06:38:22;5.63;;;3.72;;
58055;SDS011;53159;55.152;36.614;2022-08-04T06:40:54;5.07;;;3.88;;
58055;SDS011;53159;55.152;36.614;2022-08-04T06:43:25;7.93;;;4.65;;
58055;SDS011;53159;55.152;36.614;2022-08-04T06:45:54;4.50;;;3.90;;
58055;SDS011;53159;55.152;36.614;2022-08-04T06:48:27;5.53;;;3.95;;
58055;SDS011;53159;55.152;36.614;2022-08-04T06:50:56;5.30;;;3.85;;
58055;SDS011;53159;55.152;36.614;2022-08-04T06:53:25;7.35;;;5.07;;
58055;SDS011;53159;55.152;36.614;2022-08-04T06:55:52;5.47;;;4.97;;
58055;SDS011;53159;55.152;36.614;2022-08-04T06:58:22;6.05;;;4.00;;
58055;SDS011;53159;55.152;36.614;2022-08-04T07:00:51;6.07;;;3.85;;
58055;SDS011;53159;55.152;36.614;2022-08-04T07:03:21;5.07;;;3.28;;
58055;SDS011;53159;55.152;36.614;2022-08-04T07:05:50;3.53;;;3.22;;
58055;SDS011;53159;55.152;36.614;2022-08-04T07:08:18;4.75;;;3.53;;
58055;SDS011;53159;55.152;36.614;2022-08-04T07:10:46;10.65;;;4.68;;
58055;SDS011;53159;55.152;36.614;2022-08-04T07:13:14;9.27;;;4.75;;
58055;SDS011;53159;55.152;36.614;2022-08-04T07:16:03;13.73;;;4.80;;
58055;SDS011;53159;55.152;36.614;2022-08-04T07:18:32;6.97;;;3.40;;
58055;SDS011;53159;55.152;36.614;2022-08-04T07:21:00;14.23;;;4.70;;
58055;SDS011;53159;55.152;36.614;2022-08-04T07:23:27;8.57;;;3.88;;
58055;SDS011;53159;55.152;36.614;2022-08-04T07:25:54;4.78;;;3.10;;
58055;SDS011;53159;55.152;36.614;2022-08-04T07:28:25;5.30;;;3.78;;
58055;SDS011;53159;55.152;36.614;2022-08-04T07:30:54;4.45;;;3.58;;
58055;SDS011;53159;55.152;36.614;2022-08-04T07:33:24;8.57;;;4.07;;
58055;SDS011;53159;55.152;36.614;2022-08-04T07:35:53;4.00;;;3.55;;
58055;SDS011;53159;55.152;36.614;2022-08-04T07:38:21;3.80;;;3.28;;
58055;SDS011;53159;55.152;36.614;2022-08-04T07:40:47;4.10;;;3.60;;
58055;SDS011;53159;55.152;36.614;2022-08-04T07:43:16;7.60;;;3.63;;
58055;SDS011;53159;55.152;36.614;2022-08-04T07:45:43;4.07;;;3.78;;
58055;SDS011;53159;55.152;36.614;2022-08-04T07:48:10;4.57;;;4.18;;
58055;SDS011;53159;55.152;36.614;2022-08-04T07:50:37;5.70;;;3.92;;
58055;SDS011;53159;55.152;36.614;2022-08-04T07:53:07;4.78;;;3.88;;
58055;SDS011;53159;55.152;36.614;2022-08-04T07:55:35;8.63;;;4.40;;
58055;SDS011;53159;55.152;36.614;2022-08-04T07:58:01;4.50;;;4.13;;
58055;SDS011;53159;55.152;36.614;2022-08-04T08:00:28;6.07;;;4.13;;
58055;SDS011;53159;55.152;36.614;2022-08-04T08:02:57;5.95;;;4.45;;
58055;SDS011;53159;55.152;36.614;2022-08-04T08:05:25;7.03;;;4.45;;
58055;SDS011;53159;55.152;36.614;2022-08-04T08:07:53;5.00;;;4.57;;
58055;SDS011;53159;55.152;36.614;2022-08-04T08:10:23;5.40;;;4.30;;
58055;SDS011;53159;55.152;36.614;2022-08-04T08:12:53;6.95;;;4.55;;
58055;SDS011;53159;55.152;36.614;2022-08-04T08:15:21;5.82;;;4.07;;
58055;SDS011;53159;55.152;36.614;2022-08-04T08:17:48;5.22;;;3.88;;
58055;SDS011;53159;55.152;36.614;2022-08-04T08:20:15;6.45;;;5.25;;
58055;SDS011;53159;55.152;36.614;2022-08-04T08:22:42;9.38;;;4.90;;
58055;SDS011;53159;55.152;36.614;2022-08-04T08:25:11;5.63;;;5.07;;
58055;SDS011;53159;55.152;36.614;2022-08-04T08:27:38;10.68;;;4.70;;
58055;SDS011;53159;55.152;36.614;2022-08-04T08:30:05;6.20;;;4.50;;
58055;SDS011;53159;55.152;36.614;2022-08-04T08:32:34;7.85;;;5.25;;
58055;SDS011;53159;55.152;36.614;2022-08-04T08:35:00;5.30;;;4.82;;
58055;SDS011;53159;55.152;36.614;2022-08-04T08:37:31;6.53;;;5.35;;
58055;SDS011;53159;55.152;36.614;2022-08-04T08:51:53;7.13;;;5.60;;
58055;SDS011;53159;55.152;36.614;2022-08-04T09:13:39;8.60;;;5.18;;
58055;SDS011;53159;55.152;36.614;2022-08-04T09:19:20;11.27;;;5.15;;
58055;SDS011;53159;55.152;36.614;2022-08-04T09:24:40;5.93;;;5.32;;
58055;SDS011;53159;55.152;36.614;2022-08-04T09:37:44;6.80;;;5.40;;
58055;SDS011;53159;55.152;36.614;2022-08-04T09:43:32;7.20;;;5.88;;
58055;SDS011;53159;55.152;36.614;2022-08-04T09:46:24;29.15;;;7.28;;
58055;SDS011;53159;55.152;36.614;2022-08-04T09:48:58;6.80;;;5.85;;
58055;SDS011;53159;55.152;36.614;2022-08-04T09:56:41;8.65;;;6.50;;
58055;SDS011;53159;55.152;36.614;2022-08-04T09:59:26;10.05;;;5.93;;
58055;SDS011;53159;55.152;36.614;2022-08-04T10:02:03;8.60;;;6.13;;
58055;SDS011;53159;55.152;36.614;2022-08-04T10:04:36;6.68;;;6.15;;
58055;SDS011;53159;55.152;36.614;2022-08-04T10:15:45;7.00;;;6.40;;
58055;SDS011;53159;55.152;36.614;2022-08-04T10:18:37;7.60;;;6.95;;
58055;SDS011;53159;55.152;36.614;2022-08-04T10:27:00;8.38;;;6.70;;
58055;SDS011;53159;55.152;36.614;2022-08-04T10:29:37;7.38;;;6.72;;
58055;SDS011;53159;55.152;36.614;2022-08-04T10:34:47;9.40;;;7.07;;
58055;SDS011;53159;55.152;36.614;2022-08-04T10:38:05;11.52;;;7.07;;
58055;SDS011;53159;55.152;36.614;2022-08-04T10:43:50;8.70;;;7.05;;
58055;SDS011;53159;55.152;36.614;2022-08-04T10:46:28;12.07;;;6.97;;
58055;SDS011;53159;55.152;36.614;2022-08-04T10:49:08;7.30;;;6.70;;
58055;SDS011;53159;55.152;36.614;2022-08-04T10:51:45;10.43;;;7.35;;
58055;SDS011;53159;55.152;36.614;2022-08-04T10:54:20;7.88;;;7.10;;
58055;SDS011;53159;55.152;36.614;2022-08-04T10:57:13;8.27;;;7.40;;
58055;SDS011;53159;55.152;36.614;2022-08-04T10:59:54;12.40;;;8.07;;
58055;SDS011;53159;55.152;36.614;2022-08-04T11:02:50;7.70;;;7.00;;
58055;SDS011;53159;55.152;36.614;2022-08-04T11:08:13;20.25;;;7.57;;
58055;SDS011;53159;55.152;36.614;2022-08-04T11:10:46;9.00;;;8.05;;
58055;SDS011;53159;55.152;36.614;2022-08-04T11:13:22;8.30;;;7.47;;
58055;SDS011;53159;55.152;36.614;2022-08-04T11:15:51;7.82;;;7.00;;
58055;SDS011;53159;55.152;36.614;2022-08-04T11:18:25;11.13;;;7.13;;
58055;SDS011;53159;55.152;36.614;2022-08-04T11:21:19;10.65;;;8.40;;
58055;SDS011;53159;55.152;36.614;2022-08-04T11:23:58;7.85;;;7.20;;
58055;SDS011;53159;55.152;36.614;2022-08-04T11:29:26;8.05;;;7.35;;
58055;SDS011;53159;55.152;36.614;2022-08-04T11:32:04;9.13;;;8.23;;
58055;SDS011;53159;55.152;36.614;2022-08-04T11:34:46;9.02;;;8.20;;
58055;SDS011;53159;55.152;36.614;2022-08-04T11:37:16;9.75;;;8.10;;
58055;SDS011;53159;55.152;36.614;2022-08-04T11:39:52;9.53;;;8.57;;
58055;SDS011;53159;55.152;36.614;2022-08-04T11:42:47;8.98;;;7.55;;
58055;SDS011;53159;55.152;36.614;2022-08-04T11:45:36;9.85;;;8.90;;
58055;SDS011;53159;55.152;36.614;2022-08-04T11:48:09;9.10;;;8.20;;
58055;SDS011;53159;55.152;36.614;2022-08-04T11:50:44;13.30;;;8.17;;
58055;SDS011;53159;55.152;36.614;2022-08-04T11:53:17;11.52;;;8.50;;
58055;SDS011;53159;55.152;36.614;2022-08-04T11:55:51;9.63;;;7.68;;
58055;SDS011;53159;55.152;36.614;2022-08-04T11:58:20;9.38;;;8.57;;
58055;SDS011;53159;55.152;36.614;2022-08-04T12:06:17;10.80;;;8.82;;
58055;SDS011;53159;55.152;36.614;2022-08-04T12:20:23;8.82;;;8.13;;
58055;SDS011;53159;55.152;36.614;2022-08-04T12:22:53;9.77;;;8.55;;
58055;SDS011;53159;55.152;36.614;2022-08-04T12:28:04;10.38;;;9.32;;
58055;SDS011;53159;55.152;36.614;2022-08-04T12:30:39;15.30;;;9.65;;
58055;SDS011;53159;55.152;36.614;2022-08-04T12:33:22;12.13;;;9.88;;
58055;SDS011;53159;55.152;36.614;2022-08-04T12:36:42;9.73;;;8.77;;
58055;SDS011;53159;55.152;36.614;2022-08-04T12:44:54;11.18;;;9.73;;
58055;SDS011;53159;55.152;36.614;2022-08-04T12:47:25;12.57;;;9.40;;
58055;SDS011;53159;55.152;36.614;2022-08-04T12:49:56;10.48;;;9.35;;
58055;SDS011;53159;55.152;36.614;2022-08-04T12:52:27;12.45;;;8.43;;
58055;SDS011;53159;55.152;36.614;2022-08-04T12:55:15;12.20;;;9.15;;
58055;SDS011;53159;55.152;36.614;2022-08-04T12:57:43;14.00;;;9.05;;
58055;SDS011;53159;55.152;36.614;2022-08-04T13:00:21;11.35;;;8.63;;
58055;SDS011;53159;55.152;36.614;2022-08-04T13:02:50;11.18;;;9.32;;
58055;SDS011;53159;55.152;36.614;2022-08-04T13:05:18;9.27;;;8.48;;
58055;SDS011;53159;55.152;36.614;2022-08-04T13:07:49;12.45;;;10.70;;
58055;SDS011;53159;55.152;36.614;2022-08-04T13:10:18;9.80;;;8.98;;
58055;SDS011;53159;55.152;36.614;2022-08-04T13:12:52;16.23;;;12.07;;
58055;SDS011;53159;55.152;36.614;2022-08-04T13:15:22;10.30;;;9.50;;
58055;SDS011;53159;55.152;36.614;2022-08-04T13:20:32;10.13;;;9.10;;
58055;SDS011;53159;55.152;36.614;2022-08-04T13:25:36;10.80;;;8.80;;
58055;SDS011;53159;55.152;36.614;2022-08-04T13:28:25;9.57;;;8.68;;
58055;SDS011;53159;55.152;36.614;2022-08-04T13:32:30;9.90;;;8.85;;
58055;SDS011;53159;55.152;36.614;2022-08-04T13:34:59;11.05;;;9.95;;
58055;SDS011;53159;55.152;36.614;2022-08-04T13:37:35;10.38;;;9.38;;
58055;SDS011;53159;55.152;36.614;2022-08-04T13:40:08;10.60;;;9.52;;
58055;SDS011;53159;55.152;36.614;2022-08-04T13:42:45;10.77;;;9.77;;
58055;SDS011;53159;55.152;36.614;2022-08-04T13:45:28;11.55;;;10.40;;
58055;SDS011;53159;55.152;36.614;2022-08-04T13:48:21;14.48;;;10.05;;
58055;SDS011;53159;55.152;36.614;2022-08-04T13:50:51;26.48;;;10.88;;
58055;SDS011;53159;55.152;36.614;2022-08-04T13:53:23;13.02;;;9.45;;
58055;SDS011;53159;55.152;36.614;2022-08-04T13:55:59;15.88;;;9.43;;
58055;SDS011;53159;55.152;36.614;2022-08-04T13:58:43;10.40;;;9.38;;
58055;SDS011;53159;55.152;36.614;2022-08-04T14:01:55;10.55;;;9.55;;
58055;SDS011;53159;55.152;36.614;2022-08-04T14:04:37;11.15;;;10.20;;
58055;SDS011;53159;55.152;36.614;2022-08-04T14:07:46;14.60;;;10.60;;
58055;SDS011;53159;55.152;36.614;2022-08-04T14:10:51;11.40;;;10.38;;
58055;SDS011;53159;55.152;36.614;2022-08-04T14:13:29;13.50;;;9.90;;
58055;SDS011;53159;55.152;36.614;2022-08-04T14:16:18;10.52;;;9.48;;
58055;SDS011;53159;55.152;36.614;2022-08-04T14:19:00;21.10;;;11.75;;
58055;SDS011;53159;55.152;36.614;2022-08-04T14:21:36;13.50;;;9.85;;
58055;SDS011;53159;55.152;36.614;2022-08-04T14:24:09;13.32;;;10.05;;
58055;SDS011;53159;55.152;36.614;2022-08-04T14:26:59;10.98;;;9.85;;
58055;SDS011;53159;55.152;36.614;2022-08-04T14:29:35;10.95;;;9.85;;
58055;SDS011;53159;55.152;36.614;2022-08-04T14:32:05;11.43;;;10.18;;
58055;SDS011;53159;55.152;36.614;2022-08-04T14:34:37;11.77;;;10.70;;
58055;SDS011;53159;55.152;36.614;2022-08-04T14:37:13;11.10;;;10.10;;
58055;SDS011;53159;55.152;36.614;2022-08-04T14:39:43;11.93;;;9.60;;
58055;SDS011;53159;55.152;36.614;2022-08-04T14:42:14;10.90;;;9.82;;
58055;SDS011;53159;55.152;36.614;2022-08-04T14:44:54;12.68;;;10.65;;
58055;SDS011;53159;55.152;36.614;2022-08-04T14:50:10;13.23;;;9.95;;
58055;SDS011;53159;55.152;36.614;2022-08-04T14:52:38;12.82;;;11.38;;
58055;SDS011;53159;55.152;36.614;2022-08-04T14:55:19;12.35;;;11.05;;
58055;SDS011;53159;55.152;36.614;2022-08-04T14:57:48;12.40;;;11.18;;
58055;SDS011;53159;55.152;36.614;2022-08-04T15:00:34;11.85;;;10.82;;
58055;SDS011;53159;55.152;36.614;2022-08-04T15:03:05;14.32;;;10.93;;
58055;SDS011;53159;55.152;36.614;2022-08-04T15:05:38;28.05;;;12.10;;
58055;SDS011;53159;55.152;36.614;2022-08-04T15:08:08;26.08;;;12.73;;
58055;SDS011;53159;55.152;36.614;2022-08-04T15:10:38;15.35;;;11.52;;
58055;SDS011;53159;55.152;36.614;2022-08-04T15:13:05;14.48;;;10.65;;
58055;SDS011;53159;55.152;36.614;2022-08-04T15:15:34;12.82;;;11.45;;
58055;SDS011;53159;55.152;36.614;2022-08-04T15:18:01;12.80;;;11.45;;
58055;SDS011;53159;55.152;36.614;2022-08-04T15:20:28;14.15;;;11.07;;
58055;SDS011;53159;55.152;36.614;2022-08-04T15:22:58;17.45;;;10.82;;
58055;SDS011;53159;55.152;36.614;2022-08-04T15:25:26;12.93;;;11.63;;
58055;SDS011;53159;55.152;36.614;2022-08-04T15:27:57;28.83;;;12.55;;
58055;SDS011;53159;55.152;36.614;2022-08-04T15:30:26;27.42;;;12.93;;
58055;SDS011;53159;55.152;36.614;2022-08-04T15:32:57;15.68;;;11.35;;
58055;SDS011;53159;55.152;36.614;2022-08-04T15:35:28;15.95;;;12.80;;
58055;SDS011;53159;55.152;36.614;2022-08-04T15:40:38;15.18;;;11.40;;
58055;SDS011;53159;55.152;36.614;2022-08-04T15:46:04;24.75;;;12.75;;
58055;SDS011;53159;55.152;36.614;2022-08-04T15:48:31;17.98;;;11.95;;
58055;SDS011;53159;55.152;36.614;2022-08-04T15:50:59;17.73;;;11.82;;
58055;SDS011;53159;55.152;36.614;2022-08-04T15:53:29;18.42;;;12.48;;
58055;SDS011;53159;55.152;36.614;2022-08-04T15:55:58;11.73;;;10.55;;
58055;SDS011;53159;55.152;36.614;2022-08-04T15:58:25;11.52;;;10.40;;
58055;SDS011;53159;55.152;36.614;2022-08-04T16:01:12;12.50;;;11.30;;
58055;SDS011;53159;55.152;36.614;2022-08-04T16:03:41;11.68;;;10.32;;
58055;SDS011;53159;55.152;36.614;2022-08-04T16:16:30;13.50;;;12.27;;
58055;SDS011;53159;55.152;36.614;2022-08-04T16:22:10;12.68;;;11.40;;
58055;SDS011;53159;55.152;36.614;2022-08-04T16:25:42;14.25;;;13.00;;
58055;SDS011;53159;55.152;36.614;2022-08-04T16:31:13;13.02;;;11.82;;
58055;SDS011;53159;55.152;36.614;2022-08-04T16:33:40;13.55;;;12.32;;
58055;SDS011;53159;55.152;36.614;2022-08-04T16:36:07;13.93;;;12.63;;
58055;SDS011;53159;55.152;36.614;2022-08-04T16:41:46;13.38;;;12.18;;
58055;SDS011;53159;55.152;36.614;2022-08-04T16:46:59;13.52;;;12.32;;
58055;SDS011;53159;55.152;36.614;2022-08-04T16:49:28;13.55;;;12.02;;
58055;SDS011;53159;55.152;36.614;2022-08-04T16:52:06;13.95;;;12.77;;
58055;SDS011;53159;55.152;36.614;2022-08-04T16:54:34;14.73;;;13.23;;
58055;SDS011;53159;55.152;36.614;2022-08-04T16:57:09;13.27;;;11.98;;
58055;SDS011;53159;55.152;36.614;2022-08-04T16:59:36;13.93;;;12.48;;
58055;SDS011;53159;55.152;36.614;2022-08-04T17:02:04;13.88;;;12.13;;
58055;SDS011;53159;55.152;36.614;2022-08-04T17:04:35;14.48;;;13.02;;
58055;SDS011;53159;55.152;36.614;2022-08-04T17:07:03;15.15;;;12.40;;
58055;SDS011;53159;55.152;36.614;2022-08-04T17:09:33;14.27;;;13.10;;
58055;SDS011;53159;55.152;36.614;2022-08-04T17:12:01;14.35;;;12.95;;
58055;SDS011;53159;55.152;36.614;2022-08-04T17:14:31;14.35;;;12.95;;
58055;SDS011;53159;55.152;36.614;2022-08-04T17:17:00;13.90;;;12.43;;
58055;SDS011;53159;55.152;36.614;2022-08-04T17:19:29;13.55;;;12.45;;
58055;SDS011;53159;55.152;36.614;2022-08-04T17:22:00;13.90;;;12.63;;
58055;SDS011;53159;55.152;36.614;2022-08-04T17:24:30;15.02;;;13.50;;
58055;SDS011;53159;55.152;36.614;2022-08-04T17:27:03;14.18;;;12.75;;
58055;SDS011;53159;55.152;36.614;2022-08-04T17:29:33;13.07;;;11.88;;
58055;SDS011;53159;55.152;36.614;2022-08-04T17:32:02;14.32;;;12.90;;
58055;SDS011;53159;55.152;36.614;2022-08-04T17:34:33;14.85;;;13.45;;
58055;SDS011;53159;55.152;36.614;2022-08-04T17:37:04;14.93;;;13.52;;
58055;SDS011;53159;55.152;36.614;2022-08-04T17:39:35;16.23;;;14.57;;
58055;SDS011;53159;55.152;36.614;2022-08-04T17:42:06;15.75;;;14.30;;
58055;SDS011;53159;55.152;36.614;2022-08-04T17:44:35;19.45;;;13.65;;
58055;SDS011;53159;55.152;36.614;2022-08-04T17:47:18;14.93;;;13.43;;
58055;SDS011;53159;55.152;36.614;2022-08-04T17:49:46;16.15;;;14.55;;
58055;SDS011;53159;55.152;36.614;2022-08-04T17:52:20;14.90;;;13.48;;
58055;SDS011;53159;55.152;36.614;2022-08-04T17:54:49;15.75;;;13.98;;
58055;SDS011;53159;55.152;36.614;2022-08-04T17:57:34;17.00;;;14.07;;
58055;SDS011;53159;55.152;36.614;2022-08-04T18:00:03;16.77;;;13.93;;
58055;SDS011;53159;55.152;36.614;2022-08-04T18:02:37;23.92;;;14.35;;
58055;SDS011;53159;55.152;36.614;2022-08-04T18:05:05;17.15;;;15.32;;
58055;SDS011;53159;55.152;36.614;2022-08-04T18:07:35;16.67;;;15.10;;
58055;SDS011;53159;55.152;36.614;2022-08-04T18:10:04;19.73;;;14.32;;
58055;SDS011;53159;55.152;36.614;2022-08-04T18:12:33;18.17;;;15.13;;
58055;SDS011;53159;55.152;36.614;2022-08-04T18:15:25;14.80;;;13.40;;
58055;SDS011;53159;55.152;36.614;2022-08-04T18:17:54;19.30;;;14.27;;
58055;SDS011;53159;55.152;36.614;2022-08-04T18:20:25;15.35;;;13.85;;
58055;SDS011;53159;55.152;36.614;2022-08-04T18:23:01;15.70;;;14.15;;
58055;SDS011;53159;55.152;36.614;2022-08-04T18:25:28;16.70;;;15.10;;
58055;SDS011;53159;55.152;36.614;2022-08-04T18:27:56;16.13;;;13.68;;
58055;SDS011;53159;55.152;36.614;2022-08-04T18:30:25;16.27;;;14.57;;
58055;SDS011;53159;55.152;36.614;2022-08-04T18:32:55;15.55;;;13.85;;
58055;SDS011;53159;55.152;36.614;2022-08-04T18:35:40;21.25;;;15.07;;
58055;SDS011;53159;55.152;36.614;2022-08-04T18:38:09;16.48;;;14.90;;
58055;SDS011;53159;55.152;36.614;2022-08-04T18:40:40;17.42;;;14.55;;
58055;SDS011;53159;55.152;36.614;2022-08-04T18:43:12;16.88;;;15.23;;
58055;SDS011;53159;55.152;36.614;2022-08-04T18:45:42;17.67;;;15.88;;
58055;SDS011;53159;55.152;36.614;2022-08-04T18:48:22;18.67;;;15.27;;
58055;SDS011;53159;55.152;36.614;2022-08-04T18:50:54;16.92;;;15.43;;
58055;SDS011;53159;55.152;36.614;2022-08-04T18:53:27;16.95;;;15.32;;
58055;SDS011;53159;55.152;36.614;2022-08-04T18:55:57;17.67;;;15.48;;
58055;SDS011;53159;55.152;36.614;2022-08-04T18:58:30;17.00;;;15.10;;
58055;SDS011;53159;55.152;36.614;2022-08-04T19:00:58;17.35;;;15.75;;
58055;SDS011;53159;55.152;36.614;2022-08-04T19:03:28;17.58;;;15.75;;
58055;SDS011;53159;55.152;36.614;2022-08-04T19:05:57;17.70;;;16.00;;
58055;SDS011;53159;55.152;36.614;2022-08-04T19:08:31;23.20;;;18.90;;
58055;SDS011;53159;55.152;36.614;2022-08-04T19:11:06;21.02;;;18.80;;
58055;SDS011;53159;55.152;36.614;2022-08-04T19:13:33;19.75;;;17.50;;
58055;SDS011;53159;55.152;36.614;2022-08-04T19:16:01;20.67;;;18.13;;
58055;SDS011;53159;55.152;36.614;2022-08-04T19:18:30;18.50;;;16.73;;
58055;SDS011;53159;55.152;36.614;2022-08-04T19:20:58;19.17;;;17.25;;
58055;SDS011;53159;55.152;36.614;2022-08-04T19:23:26;19.55;;;17.50;;
58055;SDS011;53159;55.152;36.614;2022-08-04T19:25:53;22.77;;;18.88;;
58055;SDS011;53159;55.152;36.614;2022-08-04T19:28:22;27.33;;;24.73;;
58055;SDS011;53159;55.152;36.614;2022-08-04T19:30:48;22.15;;;19.95;;
58055;SDS011;53159;55.152;36.614;2022-08-04T19:33:16;23.42;;;21.05;;
58055;SDS011;53159;55.152;36.614;2022-08-04T19:35:44;22.67;;;20.35;;
58055;SDS011;53159;55.152;36.614;2022-08-04T19:38:13;20.65;;;18.63;;
58055;SDS011;53159;55.152;36.614;2022-08-04T19:40:42;21.10;;;17.83;;
58055;SDS011;53159;55.152;36.614;2022-08-04T19:43:11;21.13;;;19.08;;
58055;SDS011;53159;55.152;36.614;2022-08-04T19:45:40;22.63;;;20.42;;
58055;SDS011;53159;55.152;36.614;2022-08-04T19:48:07;20.50;;;18.50;;
58055;SDS011;53159;55.152;36.614;2022-08-04T19:50:36;21.25;;;19.23;;
58055;SDS011;53159;55.152;36.614;2022-08-04T19:53:04;22.83;;;19.67;;
58055;SDS011;53159;55.152;36.614;2022-08-04T19:55:31;21.13;;;19.20;;
58055;SDS011;53159;55.152;36.614;2022-08-04T19:58:06;20.90;;;19.00;;
58055;SDS011;53159;55.152;36.614;2022-08-04T20:00:36;22.02;;;20.02;;
58055;SDS011;53159;55.152;36.614;2022-08-04T20:03:05;21.17;;;19.13;;